Time;durP1;ratioP1;P1;durP2;ratioP2;P2;SDS_P1;SDS_P2;PMS_P1;PMS_P2;Temp;Humidity;BMP_temperature;BMP_pressure;BME280_temperature;BME280_humidity;BME280_pressure;Samples;Min_cycle;Max_cycle;Signal;HPM_P1;HPM_P2
2021/06/21 00:01:44;;;;;;;0.77;0.33;;;;;;;20.30;82.47;97924.91;5110764;27;39498;-77
2021/06/21 00:04:12;;;;;;;0.40;0.40;;;;;;;20.25;82.63;97914.69;5089745;28;42451;-75
2021/06/21 00:06:40;;;;;;;0.40;0.40;;;;;;;20.24;82.37;97915.72;5089394;28;42430;-75
2021/06/21 00:09:07;;;;;;;0.40;0.40;;;;;;;20.25;82.10;97921.94;5106317;28;41983;-77
2021/06/21 00:11:35;;;;;;;1.17;0.40;;;;;;;20.23;82.05;97908.66;5098068;28;39869;-74
2021/06/21 00:14:03;;;;;;;0.87;0.50;;;;;;;20.21;81.96;97913.38;5111028;27;41738;-75
2021/06/21 00:16:31;;;;;;;0.90;0.90;;;;;;;20.19;81.44;97910.03;5092591;28;41911;-75
2021/06/21 00:19:00;;;;;;;1.37;0.40;;;;;;;20.16;81.43;97918.44;5109224;28;42888;-76
2021/06/21 00:21:28;;;;;;;0.30;0.30;;;;;;;20.12;80.96;97911.78;5105428;28;40851;-77
2021/06/21 00:23:56;;;;;;;0.43;0.43;;;;;;;20.10;81.17;97903.06;5090132;28;41418;-78
2021/06/21 00:26:23;;;;;;;0.93;0.87;;;;;;;20.06;81.08;97891.81;5089536;28;42315;-77
2021/06/21 00:28:51;;;;;;;0.37;0.37;;;;;;;20.04;80.98;97898.38;5106338;28;42252;-77
2021/06/21 00:31:19;;;;;;;0.40;0.40;;;;;;;19.99;81.34;97896.25;5084858;28;39158;-75
2021/06/21 00:33:46;;;;;;;0.20;0.20;;;;;;;19.97;81.19;97902.81;5092782;28;40641;-78
2021/06/21 00:36:15;;;;;;;0.63;0.30;;;;;;;19.95;81.51;97904.81;5110581;27;42422;-76
2021/06/21 00:38:43;;;;;;;0.50;0.30;;;;;;;19.91;81.33;97914.25;5109805;28;41996;-76
2021/06/21 00:41:11;;;;;;;0.30;0.30;;;;;;;19.88;81.37;97925.38;5099739;28;40651;-77
2021/06/21 00:43:39;;;;;;;0.83;0.83;;;;;;;19.86;81.65;97932.78;5089054;28;41302;-76
2021/06/21 00:46:07;;;;;;;0.50;0.50;;;;;;;19.80;81.52;97922.72;5105257;28;42836;-72
2021/06/21 00:48:35;;;;;;;0.40;0.40;;;;;;;19.80;81.64;97928.09;5089200;28;42257;-74
2021/06/21 00:51:02;;;;;;;0.43;0.43;;;;;;;19.77;82.20;97931.16;5107923;28;39955;-78
2021/06/21 00:53:32;;;;;;;0.93;0.63;;;;;;;19.73;82.46;97934.19;5092937;27;20618;-74
2021/06/21 00:56:00;;;;;;;0.50;0.50;;;;;;;19.70;81.99;97931.84;5109884;27;43447;-80
2021/06/21 00:58:28;;;;;;;0.30;0.30;;;;;;;19.69;82.14;97938.22;5108599;28;45612;-76
2021/06/21 01:00:56;;;;;;;2.30;0.60;;;;;;;19.66;82.43;97933.19;5093082;28;39863;-77
2021/06/21 01:03:23;;;;;;;0.30;0.20;;;;;;;19.64;82.40;97935.25;5103541;28;42440;-77
2021/06/21 01:05:51;;;;;;;1.10;0.93;;;;;;;19.64;82.86;97940.63;5099578;28;42514;-75
2021/06/21 01:08:18;;;;;;;0.50;0.50;;;;;;;19.64;82.16;97935.25;5091357;28;41264;-76
2021/06/21 01:10:51;;;;;;;0.40;0.40;;;;;;;19.63;82.03;97947.00;5109025;27;41761;-75
2021/06/21 01:13:40;;;;;;;0.83;0.30;;;;;;;19.62;82.07;97952.53;5108471;28;41861;-75
2021/06/21 01:16:16;;;;;;;0.30;0.30;;;;;;;19.59;82.11;97963.63;5091436;28;43353;-74
2021/06/21 01:18:52;;;;;;;0.63;0.63;;;;;;;19.58;81.94;97978.91;5107408;28;42194;-75
2021/06/21 01:22:10;;;;;;;0.40;0.40;;;;;;;19.59;82.07;97979.75;5109571;27;39691;-76
2021/06/21 01:25:02;;;;;;;0.27;0.27;;;;;;;19.53;82.05;97977.75;5075608;28;41952;-77
2021/06/21 01:27:43;;;;;;;1.93;0.93;;;;;;;19.54;82.30;97982.94;5107564;28;42644;-76
2021/06/21 01:30:13;;;;;;;0.73;0.73;;;;;;;19.41;81.98;97961.13;5109454;27;42873;-76
2021/06/21 01:32:46;;;;;;;0.67;0.67;;;;;;;19.51;82.28;97975.25;5110800;27;40625;-76
2021/06/21 01:35:19;;;;;;;5.80;1.67;;;;;;;19.53;82.15;97972.41;5102101;27;41464;-75
2021/06/21 01:37:48;;;;;;;0.20;0.20;;;;;;;19.51;81.75;97969.88;5090096;28;42542;-78
2021/06/21 01:40:19;;;;;;;0.67;0.67;;;;;;;19.48;81.64;97959.44;5091549;28;42234;-73
2021/06/21 01:42:54;;;;;;;0.50;0.50;;;;;;;19.50;81.94;97972.72;5109718;27;39906;-78
2021/06/21 01:45:22;;;;;;;0.40;0.40;;;;;;;19.50;81.41;97970.06;5106660;27;42155;-77
2021/06/21 01:47:53;;;;;;;0.20;0.20;;;;;;;19.38;81.76;97950.75;5107991;28;42771;-75
2021/06/21 01:50:24;;;;;;;0.50;0.50;;;;;;;19.42;81.56;97962.81;5090544;28;41536;-77
2021/06/21 01:53:02;;;;;;;0.27;0.27;;;;;;;19.43;81.92;97969.84;5106744;28;39986;-77
2021/06/21 01:55:32;;;;;;;0.53;0.40;;;;;;;19.46;81.94;97984.78;5105401;28;41635;-73
2021/06/21 01:58:01;;;;;;;0.50;0.50;;;;;;;19.44;81.74;97982.28;5106442;28;43550;-73
2021/06/21 02:00:29;;;;;;;0.30;0.30;;;;;;;19.43;81.76;97985.97;5104876;28;41256;-78
2021/06/21 02:03:01;;;;;;;2.90;0.37;;;;;;;19.41;82.04;97979.94;5107527;28;40788;-77
2021/06/21 02:05:31;;;;;;;1.20;1.10;;;;;;;19.40;81.89;97975.59;5108295;27;41316;-74
2021/06/21 02:07:59;;;;;;;0.40;0.40;;;;;;;19.38;81.68;97974.94;5112988;27;43828;-74
2021/06/21 02:10:33;;;;;;;0.67;0.40;;;;;;;19.34;81.43;97971.75;5111883;27;42009;-74
2021/06/21 02:13:03;;;;;;;0.30;0.30;;;;;;;19.38;81.81;97999.09;5111852;27;39831;-77
2021/06/21 02:15:32;;;;;;;0.60;0.60;;;;;;;19.36;81.28;97991.19;5110222;28;40747;-76
2021/06/21 02:18:02;;;;;;;1.70;1.60;;;;;;;19.36;81.69;97974.25;5111845;27;42764;-74
2021/06/21 02:20:30;;;;;;;1.97;1.57;;;;;;;19.33;81.20;97980.81;5090752;28;41419;-78
2021/06/21 02:22:58;;;;;;;0.30;0.30;;;;;;;19.30;81.75;97985.66;5090659;28;39688;-74
2021/06/21 02:25:26;;;;;;;0.40;0.40;;;;;;;19.28;81.37;97979.66;5089608;28;41745;-74
2021/06/21 02:27:55;;;;;;;0.20;0.20;;;;;;;19.27;81.50;97969.94;5090754;28;42713;-75
2021/06/21 02:30:23;;;;;;;0.20;0.20;;;;;;;19.26;81.05;97995.09;5102890;28;42285;-77
2021/06/21 02:32:52;;;;;;;0.20;0.20;;;;;;;19.23;80.66;98000.78;5089835;28;39061;-73
2021/06/21 02:35:21;;;;;;;0.50;0.50;;;;;;;19.20;80.87;97993.09;5110860;28;41577;-77
2021/06/21 02:37:49;;;;;;;0.20;0.20;;;;;;;19.14;80.83;97980.38;5111464;28;43413;-75
2021/06/21 02:40:17;;;;;;;0.30;0.30;;;;;;;19.15;80.89;98003.50;5093399;28;41752;-76
2021/06/21 02:42:45;;;;;;;1.50;0.50;;;;;;;19.17;81.13;98006.84;5110686;28;39841;-76
2021/06/21 02:45:14;;;;;;;0.47;0.47;;;;;;;19.14;81.54;98013.41;5110563;27;41590;-73
2021/06/21 02:47:43;;;;;;;1.37;0.57;;;;;;;18.91;81.72;97991.81;5111271;27;42644;-76
2021/06/21 02:50:13;;;;;;;1.60;1.50;;;;;;;19.11;81.56;98023.63;5104035;28;43476;-75
2021/06/21 02:53:05;;;;;;;0.50;0.50;;;;;;;19.11;81.34;98023.63;5105960;28;40386;-75
2021/06/21 02:55:39;;;;;;;0.70;0.30;;;;;;;19.09;81.10;98026.50;5087800;28;41600;-77
2021/06/21 02:58:14;;;;;;;0.10;0.10;;;;;;;19.06;81.12;98015.25;5071487;28;42219;-77
2021/06/21 03:00:42;;;;;;;0.60;0.40;;;;;;;19.03;81.29;98016.44;5073067;28;41789;-77
2021/06/21 03:03:10;;;;;;;0.37;0.37;;;;;;;18.96;81.09;98020.78;5090106;28;40084;-75
2021/06/21 03:05:39;;;;;;;0.17;0.17;;;;;;;18.96;81.31;98021.63;5091886;28;41808;-77
2021/06/21 03:08:11;;;;;;;0.83;0.43;;;;;;;18.93;81.44;98032.69;5090310;28;42336;-78
2021/06/21 03:10:40;;;;;;;0.60;0.60;;;;;;;18.93;81.08;98032.69;5103485;28;42257;-78
2021/06/21 03:13:09;;;;;;;1.30;0.50;;;;;;;18.92;81.06;98036.38;5110141;28;39367;-77
2021/06/21 03:15:37;;;;;;;0.30;0.30;;;;;;;18.90;81.28;98027.69;5109834;28;41442;-78
2021/06/21 03:18:06;;;;;;;0.20;0.20;;;;;;;18.89;81.67;98031.38;5107776;27;43206;-76
2021/06/21 03:20:34;;;;;;;0.50;0.50;;;;;;;18.88;81.53;98035.06;5092218;28;42345;-77
2021/06/21 03:23:04;;;;;;;0.67;0.40;;;;;;;18.87;81.52;98028.03;5091401;28;39898;-79
2021/06/21 03:25:36;;;;;;;0.93;0.60;;;;;;;18.88;81.47;98034.22;5091489;28;42095;-75
2021/06/21 03:28:09;;;;;;;0.73;0.73;;;;;;;18.87;81.42;98033.38;5090649;28;42701;-79
2021/06/21 03:30:40;;;;;;;0.70;0.70;;;;;;;18.86;81.34;98031.72;5091737;28;42327;-74
2021/06/21 03:33:08;;;;;;;0.30;0.30;;;;;;;18.80;81.11;98016.25;5090796;28;39974;-77
2021/06/21 03:35:35;;;;;;;0.30;0.30;;;;;;;18.88;80.95;98029.69;5090535;28;40275;-74
2021/06/21 03:38:11;;;;;;;0.27;0.27;;;;;;;18.88;81.06;98035.06;5090705;28;42719;-78
2021/06/21 03:40:40;;;;;;;0.30;0.30;;;;;;;18.87;81.36;98030.69;5091542;28;42928;-74
2021/06/21 03:43:08;;;;;;;0.33;0.33;;;;;;;18.86;81.31;98031.72;5089842;28;40784;-77
2021/06/21 03:45:35;;;;;;;0.20;0.20;;;;;;;18.83;81.33;98026.66;5091666;28;41620;-75
2021/06/21 03:48:03;;;;;;;0.30;0.30;;;;;;;18.88;81.51;98035.06;5099993;28;42770;-76
2021/06/21 03:50:31;;;;;;;2.77;0.83;;;;;;;18.85;81.71;98030.03;5090934;28;42684;-76
2021/06/21 03:52:59;;;;;;;1.63;1.00;;;;;;;18.87;81.70;98032.53;5089866;28;39300;-78
2021/06/21 03:55:26;;;;;;;0.30;0.30;;;;;;;18.90;81.85;98038.44;5088129;28;41639;-76
2021/06/21 03:57:55;;;;;;;0.47;0.47;;;;;;;18.95;81.73;98051.31;5090331;28;41999;-77
2021/06/21 04:00:25;;;;;;;0.40;0.40;;;;;;;18.98;81.63;98045.63;5089161;28;41042;-78
2021/06/21 04:02:53;;;;;;;0.70;0.70;;;;;;;19.00;81.63;98055.19;5090202;28;39957;-76
2021/06/21 04:05:22;;;;;;;0.73;0.63;;;;;;;19.04;81.11;98055.66;5090542;28;41474;-80
2021/06/21 04:07:49;;;;;;;0.20;0.20;;;;;;;19.08;81.26;98061.53;5089746;28;42322;-78
2021/06/21 04:10:20;;;;;;;0.20;0.20;;;;;;;19.12;81.00;98062.88;5088549;28;41027;-78
2021/06/21 04:12:49;;;;;;;0.23;0.23;;;;;;;19.14;80.84;98060.88;5088390;28;39952;-80
2021/06/21 04:15:20;;;;;;;0.33;0.33;;;;;;;19.16;80.67;98056.19;5090217;28;41807;-76
2021/06/21 04:17:49;;;;;;;0.30;0.27;;;;;;;19.23;80.32;98066.06;5091106;28;42515;-77
2021/06/21 04:20:19;;;;;;;0.40;0.40;;;;;;;19.14;80.51;98039.41;5088571;28;42719;-75
2021/06/21 04:22:47;;;;;;;0.30;0.30;;;;;;;19.33;80.60;98068.56;5106257;28;39708;-76
2021/06/21 04:25:16;;;;;;;2.33;1.73;;;;;;;19.34;80.70;98064.88;5089856;28;41215;-78
2021/06/21 04:27:44;;;;;;;0.33;0.33;;;;;;;19.40;80.62;98061.53;5090073;28;42240;-78
2021/06/21 04:30:14;;;;;;;5.30;1.13;;;;;;;19.40;80.40;98058.84;5089277;28;42064;-78
2021/06/21 04:32:43;;;;;;;0.80;0.80;;;;;;;19.48;80.66;98057.97;5090143;28;40882;-76
2021/06/21 04:35:13;;;;;;;0.40;0.40;;;;;;;19.54;80.67;98058.13;5104997;28;41479;-76
2021/06/21 04:37:41;;;;;;;1.90;0.60;;;;;;;19.60;80.56;98054.78;5089148;28;42883;-79
2021/06/21 04:40:12;;;;;;;1.77;1.03;;;;;;;19.53;80.00;98029.63;5092083;28;42122;-77
2021/06/21 04:42:41;;;;;;;0.90;0.70;;;;;;;19.59;80.10;98033.47;5111261;27;39812;-76
2021/06/21 04:45:09;;;;;;;0.30;0.30;;;;;;;19.77;80.27;98052.06;5108589;28;41682;-73
2021/06/21 04:47:37;;;;;;;0.50;0.50;;;;;;;19.78;79.93;98053.72;5110894;27;43448;-75
2021/06/21 04:50:09;;;;;;;0.40;0.40;;;;;;;19.82;79.63;98055.88;5109141;28;42245;-76
2021/06/21 04:52:39;;;;;;;0.60;0.40;;;;;;;19.81;79.79;98064.09;5110394;28;39894;-76
2021/06/21 04:55:09;;;;;;;0.30;0.30;;;;;;;19.91;79.59;98070.94;5108029;28;41499;-76
2021/06/21 04:57:37;;;;;;;0.50;0.30;;;;;;;19.84;79.22;98066.44;5109050;28;41705;-75
2021/06/21 05:00:07;;;;;;;0.23;0.23;;;;;;;19.82;79.30;98060.41;5108183;28;42929;-78
2021/06/21 05:02:35;;;;;;;0.40;0.40;;;;;;;19.88;79.14;98070.47;5108394;28;40007;-75
2021/06/21 05:05:03;;;;;;;1.00;0.80;;;;;;;19.84;78.81;98066.44;5107024;28;42389;-78
2021/06/21 05:07:36;;;;;;;0.53;0.30;;;;;;;19.98;78.59;98052.28;5089252;28;42800;-73
2021/06/21 05:10:05;;;;;;;2.93;0.77;;;;;;;20.24;78.34;98079.72;5106219;27;41994;-75
2021/06/21 05:12:32;;;;;;;0.40;0.40;;;;;;;20.30;77.84;98070.09;5129899;27;39103;-79
2021/06/21 05:15:00;;;;;;;0.30;0.30;;;;;;;20.55;77.90;98078.91;5130032;27;41938;-79
2021/06/21 05:17:28;;;;;;;0.50;0.50;;;;;;;20.69;77.39;98086.22;5129644;27;44153;-77
2021/06/21 05:19:55;;;;;;;0.33;0.33;;;;;;;20.84;76.89;98084.44;5130315;27;42098;-79
2021/06/21 05:22:23;;;;;;;0.97;0.80;;;;;;;20.83;75.64;98077.38;5131005;27;41609;-76
2021/06/21 05:24:54;;;;;;;0.30;0.30;;;;;;;21.01;75.30;98091.38;5098705;28;40506;-78
2021/06/21 05:27:22;;;;;;;0.40;0.30;;;;;;;21.16;75.00;98086.84;5108798;28;42666;-76
2021/06/21 05:29:49;;;;;;;1.70;0.80;;;;;;;21.10;74.22;98084.91;5109099;27;43064;-78
2021/06/21 05:32:17;;;;;;;1.70;0.77;;;;;;;21.03;74.25;98077.72;5106879;27;40053;-77
2021/06/21 05:34:45;;;;;;;0.50;0.50;;;;;;;20.91;74.05;98077.28;5114172;27;42232;-81
2021/06/21 05:37:13;;;;;;;0.40;0.40;;;;;;;20.89;74.45;98079.34;5110959;27;43142;-77
2021/06/21 05:39:40;;;;;;;0.63;0.63;;;;;;;20.88;74.77;98058.00;5097946;27;42089;-78
2021/06/21 05:42:10;;;;;;;0.43;0.43;;;;;;;21.02;74.51;98063.41;5103811;28;40719;-73
2021/06/21 05:44:38;;;;;;;0.20;0.20;;;;;;;21.09;74.46;98067.06;5108645;27;41658;-76
2021/06/21 05:47:06;;;;;;;0.60;0.60;;;;;;;21.17;73.85;98074.22;5109606;27;42529;-80
2021/06/21 05:49:33;;;;;;;0.87;0.73;;;;;;;21.26;73.28;98075.03;5108675;27;42930;-76
2021/06/21 05:52:01;;;;;;;0.30;0.30;;;;;;;21.41;73.67;98081.28;5110430;27;39958;-79
2021/06/21 05:54:29;;;;;;;0.20;0.20;;;;;;;21.90;71.77;98075.34;5108541;27;42464;-78
2021/06/21 05:56:56;;;;;;;1.40;0.90;;;;;;;22.53;69.63;98070.19;5071008;28;42938;-78
2021/06/21 05:59:25;;;;;;;0.30;0.30;;;;;;;22.93;67.38;98073.31;5086205;28;41095;-74
2021/06/21 06:01:53;;;;;;;1.60;1.23;;;;;;;22.93;67.69;98076.84;5071278;28;39893;-76
2021/06/21 06:04:20;;;;;;;0.57;0.57;;;;;;;22.75;67.91;98071.03;5092080;28;41688;-78
2021/06/21 06:06:48;;;;;;;0.57;0.40;;;;;;;22.63;68.63;98067.16;5091448;28;42629;-74
2021/06/21 06:09:16;;;;;;;1.13;0.70;;;;;;;22.49;68.33;98058.09;5090369;28;41585;-75
2021/06/21 06:11:43;;;;;;;0.37;0.37;;;;;;;22.51;68.42;98077.63;5107990;28;41258;-76
2021/06/21 06:14:11;;;;;;;0.50;0.50;;;;;;;22.52;68.21;98076.59;5106531;28;42670;-73
2021/06/21 06:16:40;;;;;;;0.37;0.37;;;;;;;22.63;69.13;98075.25;5108529;28;42591;-82
2021/06/21 06:19:07;;;;;;;0.53;0.53;;;;;;;22.80;67.80;98094.78;5108972;27;43106;-77
2021/06/21 06:21:35;;;;;;;0.40;0.40;;;;;;;22.88;66.29;98102.75;5106385;28;39949;-77
2021/06/21 06:24:03;;;;;;;0.70;0.53;;;;;;;22.96;66.21;98110.75;5108991;27;41626;-76
2021/06/21 06:26:30;;;;;;;0.37;0.37;;;;;;;23.00;65.84;98109.31;5114936;27;41880;-78
2021/06/21 06:28:58;;;;;;;0.43;0.43;;;;;;;23.03;65.45;98106.25;5108650;27;42167;-78
2021/06/21 06:31:25;;;;;;;0.43;0.43;;;;;;;23.03;66.13;98110.81;5108515;27;39977;-76
2021/06/21 06:33:54;;;;;;;1.40;0.80;;;;;;;22.92;65.43;98109.44;5107545;28;42314;-80
2021/06/21 06:36:22;;;;;;;0.43;0.33;;;;;;;22.97;66.06;98107.03;5090560;28;43086;-77
2021/06/21 06:38:49;;;;;;;0.50;0.47;;;;;;;22.96;64.94;98104.50;5109437;27;42227;-77
2021/06/21 06:41:17;;;;;;;0.53;0.53;;;;;;;23.03;64.29;98102.69;5107665;27;39779;-76
2021/06/21 06:43:44;;;;;;;0.30;0.30;;;;;;;23.12;65.04;98099.66;5108214;28;41659;-77
2021/06/21 06:46:12;;;;;;;0.47;0.37;;;;;;;23.30;65.01;98096.50;5096695;28;41788;-74
2021/06/21 06:48:40;;;;;;;0.20;0.20;;;;;;;23.59;63.60;98100.94;5087010;28;42341;-77
2021/06/21 06:51:09;;;;;;;0.80;0.73;;;;;;;23.63;63.40;98103.03;5088328;28;39985;-76
2021/06/21 06:53:41;;;;;;;0.40;0.40;;;;;;;23.66;63.90;98106.38;5088937;28;42135;-74
2021/06/21 06:58:55;;;;;;;0.33;0.33;;;;;;;23.76;63.68;98107.69;5091683;28;42273;-80
2021/06/21 07:01:23;;;;;;;0.33;0.33;;;;;;;23.86;62.23;98118.19;5110644;28;40868;-77
2021/06/21 07:03:52;;;;;;;0.47;0.47;;;;;;;24.14;62.63;98132.50;5110366;28;41382;-82
2021/06/21 07:06:21;;;;;;;0.20;0.20;;;;;;;24.60;60.76;98119.19;5092037;28;41881;-76
2021/06/21 07:08:49;;;;;;;0.60;0.60;;;;;;;24.87;60.36;98124.69;5089996;28;42319;-84
2021/06/21 07:11:17;;;;;;;1.13;0.60;;;;;;;25.17;59.46;98138.78;5073236;28;39908;-80
2021/06/21 07:13:44;;;;;;;0.30;0.20;;;;;;;25.41;58.50;98130.88;5090938;28;41498;-78
2021/06/21 07:16:12;;;;;;;0.20;0.20;;;;;;;25.42;57.97;98124.41;5096698;28;43166;-78
2021/06/21 07:18:40;;;;;;;0.43;0.43;;;;;;;25.31;58.49;98135.88;5073858;28;42585;-81
2021/06/21 07:21:07;;;;;;;0.30;0.30;;;;;;;25.26;56.85;98138.34;5089658;28;39778;-80
2021/06/21 07:23:37;;;;;;;0.80;0.80;;;;;;;25.28;58.06;98125.44;5090220;28;41221;-75
2021/06/21 07:26:05;;;;;;;0.30;0.30;;;;;;;25.55;59.07;98125.44;5106121;28;42714;-81
2021/06/21 07:28:33;;;;;;;0.70;0.70;;;;;;;25.85;58.10;98132.13;5090853;28;42538;-78
2021/06/21 07:31:01;;;;;;;0.50;0.50;;;;;;;26.81;56.03;98148.59;5092561;28;39424;-78
2021/06/21 07:33:30;;;;;;;0.20;0.20;;;;;;;27.95;51.49;98162.03;5111248;28;42130;-79
2021/06/21 07:35:58;;;;;;;0.33;0.30;;;;;;;29.29;49.26;98163.88;5074311;28;42791;-75
2021/06/21 07:38:26;;;;;;;0.67;0.67;;;;;;;30.81;46.18;98172.97;5091195;28;44063;-79
2021/06/21 07:40:55;;;;;;;1.07;0.70;;;;;;;32.24;40.72;98203.84;5108341;28;40101;-76
2021/06/21 07:43:22;;;;;;;2.20;0.40;;;;;;;33.40;39.14;98196.31;5109899;28;41033;-81
2021/06/21 07:45:50;;;;;;;0.83;0.50;;;;;;;34.31;37.49;98197.16;5102838;28;43908;-84
2021/06/21 07:48:18;;;;;;;0.23;0.23;;;;;;;34.92;36.40;98203.03;5091251;28;42580;-82
2021/06/21 07:50:46;;;;;;;0.40;0.40;;;;;;;35.89;35.13;98207.69;5090501;28;40533;-82
2021/06/21 07:53:14;;;;;;;0.40;0.40;;;;;;;36.44;34.18;98225.34;5091509;28;42219;-85
2021/06/21 07:55:42;;;;;;;0.40;0.40;;;;;;;37.04;33.31;98234.59;5106750;28;43115;-82
2021/06/21 07:58:11;;;;;;;0.60;0.60;;;;;;;38.09;32.28;98214.94;5112007;27;42890;-85
2021/06/21 08:00:40;;;;;;;0.80;0.70;;;;;;;38.69;30.79;98205.25;5108702;28;39673;-86
2021/06/21 08:03:10;;;;;;;0.83;0.60;;;;;;;38.71;30.72;98221.53;5111050;27;41283;-87
2021/06/21 08:05:40;;;;;;;0.37;0.37;;;;;;;37.54;30.75;98227.19;5092533;28;42918;-79
2021/06/21 08:08:08;;;;;;;0.50;0.50;;;;;;;36.36;33.32;98195.56;5093202;28;40942;-79
2021/06/21 08:10:36;;;;;;;0.40;0.40;;;;;;;35.70;35.41;98184.53;5109353;28;40703;-87
2021/06/21 08:13:03;;;;;;;0.50;0.50;;;;;;;35.66;32.92;98202.69;5110584;27;41907;-77
2021/06/21 08:15:32;;;;;;;0.60;0.60;;;;;;;36.00;32.17;98209.34;5092583;28;42011;-81
2021/06/21 08:18:00;;;;;;;0.67;0.57;;;;;;;37.03;31.15;98216.38;5092639;28;41500;-83
2021/06/21 08:20:28;;;;;;;0.45;0.45;;;;;;;38.03;29.30;98225.19;5109921;28;38937;-86
2021/06/21 08:22:55;;;;;;;0.40;0.40;;;;;;;38.86;28.25;98234.38;5109790;28;41867;-79
2021/06/21 08:25:23;;;;;;;2.45;1.85;;;;;;;39.22;28.15;98234.81;5110515;27;43828;-78
2021/06/21 08:27:51;;;;;;;0.60;0.60;;;;;;;38.98;27.81;98229.28;5110188;28;42320;-89
2021/06/21 08:30:19;;;;;;;0.50;0.50;;;;;;;38.27;28.26;98213.41;5110360;27;39860;-84
2021/06/21 08:32:48;;;;;;;0.88;0.50;;;;;;;37.77;29.09;98231.19;5110516;28;40311;-81
2021/06/21 08:35:15;;;;;;;0.30;0.30;;;;;;;37.52;28.77;98234.94;5107527;28;42848;-79
2021/06/21 08:37:43;;;;;;;0.50;0.50;;;;;;;37.56;29.39;98224.97;5093323;28;41387;-79
2021/06/21 08:40:13;;;;;;;0.80;0.70;;;;;;;38.04;29.38;98215.78;5116756;28;40622;-81
2021/06/21 08:42:40;;;;;;;0.40;0.40;;;;;;;39.09;28.78;98225.28;5123464;28;42108;-74
2021/06/21 08:45:10;;;;;;;0.50;0.43;;;;;;;40.24;26.46;98250.78;5120912;28;42965;-77
2021/06/21 08:47:38;;;;;;;0.35;0.35;;;;;;;41.12;24.74;98249.75;5120095;27;42782;-74
2021/06/21 08:50:10;;;;;;;0.38;0.38;;;;;;;41.86;23.18;98258.72;5120611;27;40514;-79
2021/06/21 08:52:40;;;;;;;0.30;0.30;;;;;;;42.45;22.58;98254.78;5118986;27;42188;-78
2021/06/21 08:55:09;;;;;;;0.40;0.40;;;;;;;43.16;22.81;98247.25;5114855;28;43049;-82
2021/06/21 08:57:40;;;;;;;0.30;0.30;;;;;;;43.79;22.28;98253.47;5119868;28;42557;-78
2021/06/21 09:00:10;;;;;;;0.50;0.50;;;;;;;44.14;21.81;98266.34;5118768;28;40464;-74
2021/06/21 09:02:38;;;;;;;0.40;0.40;;;;;;;44.18;21.62;98261.72;5117242;27;42487;-80
2021/06/21 09:05:09;;;;;;;0.40;0.30;;;;;;;44.23;20.95;98269.13;5080051;28;41956;-76
2021/06/21 09:07:36;;;;;;;0.63;0.63;;;;;;;43.20;22.23;98242.72;5099830;28;42878;-80
2021/06/21 09:10:09;;;;;;;0.60;0.60;;;;;;;42.04;22.28;98249.38;5107699;28;40457;-83
2021/06/21 09:12:36;;;;;;;0.73;0.73;;;;;;;40.68;24.06;98251.13;5125562;27;41779;-82
2021/06/21 09:15:09;;;;;;;0.98;0.75;;;;;;;40.37;25.12;98238.94;5107672;28;42584;-79
2021/06/21 09:17:39;;;;;;;0.65;0.65;;;;;;;40.71;25.07;98238.63;5089900;28;41099;-83
2021/06/21 09:20:11;;;;;;;0.67;0.67;;;;;;;40.77;24.01;98242.97;5088136;28;39639;-80
2021/06/21 09:22:40;;;;;;;0.50;0.50;;;;;;;39.90;25.01;98248.31;5102286;28;42191;-88
2021/06/21 09:25:10;;;;;;;1.50;0.87;;;;;;;39.04;26.26;98228.94;5111305;27;42684;-79
2021/06/21 09:27:40;;;;;;;0.57;0.57;;;;;;;38.23;27.03;98231.69;5097053;28;42315;-81
2021/06/21 09:30:11;;;;;;;0.63;0.60;;;;;;;36.97;28.84;98214.72;5111805;27;40673;-81
2021/06/21 09:32:47;;;;;;;0.50;0.50;;;;;;;36.31;30.21;98199.16;5097669;28;41366;-80
2021/06/21 09:35:41;;;;;;;0.40;0.40;;;;;;;35.81;30.23;98205.50;5113377;27;43676;-76
2021/06/21 09:38:19;;;;;;;1.93;0.90;;;;;;;37.31;28.93;98212.94;5109995;27;42343;-78
2021/06/21 09:40:50;;;;;;;0.80;0.80;;;;;;;39.88;26.14;98231.16;5090704;28;39797;-77
2021/06/21 09:43:24;;;;;;;0.50;0.50;;;;;;;41.78;23.92;98248.34;5091604;28;42031;-79
2021/06/21 09:46:12;;;;;;;0.68;0.68;;;;;;;43.16;21.99;98257.56;5109196;27;42833;-85
2021/06/21 09:48:43;;;;;;;1.20;1.20;;;;;;;41.47;23.64;98246.22;5092210;28;41291;-83
2021/06/21 09:51:34;;;;;;;0.50;0.40;;;;;;;39.09;26.36;98230.81;5086726;28;38934;-83
2021/06/21 09:54:06;;;;;;;0.57;0.57;;;;;;;37.75;27.39;98229.53;5088934;28;41521;-86
2021/06/21 09:56:40;;;;;;;0.43;0.43;;;;;;;39.28;26.29;98231.69;5088585;28;41721;-82
2021/06/21 09:59:21;;;;;;;0.57;0.57;;;;;;;38.51;26.57;98239.16;5091893;28;41526;-85
2021/06/21 10:02:07;;;;;;;0.67;0.67;;;;;;;37.69;27.76;98227.13;5091162;28;39068;-89
2021/06/21 10:04:36;;;;;;;0.50;0.50;;;;;;;37.64;28.38;98210.56;5091699;28;41943;-86
2021/06/21 10:07:06;;;;;;;0.97;0.90;;;;;;;36.97;29.19;98211.97;5109576;27;43419;-85
2021/06/21 10:09:34;;;;;;;1.93;0.60;;;;;;;35.81;29.69;98200.00;5091580;28;41172;-83
2021/06/21 10:12:01;;;;;;;0.60;0.60;;;;;;;35.28;30.76;98184.72;5088901;28;40505;-86
2021/06/21 10:14:30;;;;;;;0.50;0.50;;;;;;;34.85;30.83;98202.44;5088512;28;41367;-83
2021/06/21 10:16:58;;;;;;;0.50;0.50;;;;;;;34.28;32.10;98197.69;5071677;28;42974;-79
2021/06/21 10:19:25;;;;;;;0.47;0.40;;;;;;;34.18;32.27;98186.59;5074720;28;41362;-84
2021/06/21 10:21:55;;;;;;;0.53;0.53;;;;;;;33.91;33.96;98174.84;5089779;28;40784;-86
2021/06/21 10:24:30;;;;;;;0.37;0.37;;;;;;;33.60;34.28;98188.28;5093483;28;40621;-84
2021/06/21 10:27:00;;;;;;;0.67;0.63;;;;;;;34.11;33.42;98181.34;5093019;28;41787;-82
2021/06/21 10:29:28;;;;;;;0.50;0.50;;;;;;;34.29;32.50;98185.59;5110188;28;41334;-82
2021/06/21 10:31:58;;;;;;;0.47;0.47;;;;;;;34.19;32.24;98188.25;5112353;28;39161;-78
2021/06/21 10:34:25;;;;;;;0.30;0.30;;;;;;;34.01;32.65;98185.91;5090762;28;43487;-76
2021/06/21 10:36:55;;;;;;;0.60;0.60;;;;;;;34.18;32.78;98184.66;5092044;28;41987;-76
2021/06/21 10:39:27;;;;;;;0.50;0.50;;;;;;;34.62;33.27;98178.09;5104165;28;41400;-82
2021/06/21 10:42:20;;;;;;;0.47;0.47;;;;;;;34.76;31.21;98199.38;5094895;28;39186;-78
2021/06/21 10:44:51;;;;;;;0.90;0.70;;;;;;;34.60;31.19;98205.88;5110501;28;41396;-78
2021/06/21 10:47:27;;;;;;;0.67;0.67;;;;;;;34.44;32.18;98190.38;5094461;28;41674;-81
2021/06/21 10:49:58;;;;;;;0.50;0.50;;;;;;;34.22;32.78;98193.22;5103950;28;42487;-79
2021/06/21 10:52:31;;;;;;;0.30;0.30;;;;;;;34.04;32.59;98185.38;5106760;28;40145;-76
2021/06/21 10:55:37;;;;;;;1.23;0.53;;;;;;;33.93;35.29;98172.66;5094338;28;41811;-82
2021/06/21 10:58:26;;;;;;;0.60;0.60;;;;;;;33.71;33.06;98179.06;5127554;27;41784;-79
2021/06/21 11:00:56;;;;;;;0.60;0.60;;;;;;;33.62;32.71;98188.03;5111575;28;42182;-79
2021/06/21 11:03:37;;;;;;;0.50;0.50;;;;;;;33.49;34.14;98184.63;5112574;27;40492;-80
2021/06/21 11:06:07;;;;;;;0.30;0.30;;;;;;;33.11;33.82;98199.28;5111089;27;42188;-76
2021/06/21 11:08:45;;;;;;;0.47;0.47;;;;;;;33.16;35.63;98174.63;5111171;28;42074;-78
2021/06/21 11:11:42;;;;;;;0.50;0.50;;;;;;;33.25;33.42;98187.94;5110557;28;42226;-78
2021/06/21 11:14:14;;;;;;;1.07;0.50;;;;;;;33.11;33.91;98187.47;5093443;28;40243;-79
2021/06/21 11:16:44;;;;;;;1.07;0.83;;;;;;;33.18;33.72;98188.91;5110868;28;42419;-79
2021/06/21 11:19:30;;;;;;;1.20;0.47;;;;;;;33.20;34.35;98183.19;5109630;28;42150;-75
2021/06/21 11:22:01;;;;;;;0.33;0.33;;;;;;;32.90;34.43;98189.13;5111094;28;42127;-81
2021/06/21 11:24:58;;;;;;;0.50;0.50;;;;;;;32.54;34.13;98186.97;5110250;28;40223;-77
2021/06/21 11:27:43;;;;;;;0.60;0.60;;;;;;;32.56;35.38;98174.69;5112215;27;42478;-76
2021/06/21 11:30:42;;;;;;;1.10;0.80;;;;;;;32.84;37.25;98151.75;5112783;27;45003;-77
2021/06/21 11:33:15;;;;;;;0.60;0.60;;;;;;;32.99;35.49;98156.59;5110229;28;41561;-86
2021/06/21 11:36:00;;;;;;;0.27;0.27;;;;;;;33.11;35.18;98158.13;5111429;27;39428;-83
2021/06/21 11:38:34;;;;;;;0.50;0.40;;;;;;;33.56;34.06;98184.41;5109476;27;40868;-79
2021/06/21 11:41:27;;;;;;;0.53;0.53;;;;;;;33.80;34.08;98174.75;5093418;28;42216;-82
2021/06/21 11:44:00;;;;;;;0.93;0.40;;;;;;;34.14;33.78;98171.72;5110404;28;42317;-75
2021/06/21 11:46:49;;;;;;;0.30;0.30;;;;;;;34.60;32.09;98192.13;5112552;27;39583;-85
2021/06/21 11:49:19;;;;;;;0.50;0.50;;;;;;;34.41;31.58;98169.72;5109877;28;40705;-81
2021/06/21 11:51:55;;;;;;;0.50;0.50;;;;;;;35.47;30.80;98193.31;5111707;27;42527;-81
2021/06/21 11:54:23;;;;;;;0.50;0.50;;;;;;;36.25;31.90;98178.22;5110830;27;41942;-77